Time;durP1;ratioP1;P1;durP2;ratioP2;P2;SDS_P1;SDS_P2;PMS_P1;PMS_P2;Temp;Humidity;BMP_temperature;BMP_pressure;BME280_temperature;BME280_humidity;BME280_pressure;Samples;Min_cycle;Max_cycle;Signal;HPM_P1;HPM_P2
2021/05/15 00:01:17;;;;;;;7.30;5.05;;;18.70;92.90;;;;;;5032526;28;20029;-62
2021/05/15 00:03:42;;;;;;;5.55;5.00;;;18.60;92.90;;;;;;5032530;28;20111;-61
2021/05/15 00:06:08;;;;;;;5.07;4.57;;;18.60;92.90;;;;;;5031518;28;20068;-62
2021/05/15 00:08:34;;;;;;;5.30;4.60;;;18.60;92.80;;;;;;5031425;28;20424;-62
2021/05/15 00:11:00;;;;;;;5.40;4.90;;;18.60;92.80;;;;;;5031463;28;20053;-62
2021/05/15 00:13:26;;;;;;;5.22;4.70;;;18.60;92.80;;;;;;5031831;28;20036;-62
2021/05/15 00:15:52;;;;;;;4.97;4.47;;;18.60;92.80;;;;;;5031918;28;20036;-67
2021/05/15 00:18:18;;;;;;;4.93;4.28;;;18.50;92.70;;;;;;5031227;28;20029;-68
2021/05/15 00:20:43;;;;;;;4.90;4.40;;;18.50;92.70;;;;;;5032059;28;20018;-68
2021/05/15 00:23:09;;;;;;;5.13;4.57;;;18.50;92.70;;;;;;5031849;28;20039;-68
2021/05/15 00:25:34;;;;;;;5.40;4.90;;;18.50;92.70;;;;;;5031736;28;20064;-68
2021/05/15 00:28:00;;;;;;;5.07;4.57;;;18.50;92.70;;;;;;5031353;28;20124;-69
2021/05/15 00:30:26;;;;;;;5.50;4.95;;;18.40;92.60;;;;;;5031590;28;20096;-67
2021/05/15 00:32:52;;;;;;;5.50;5.00;;;18.40;92.60;;;;;;5031641;28;20037;-68
2021/05/15 00:35:18;;;;;;;5.35;4.82;;;18.40;92.60;;;;;;5031204;28;20136;-68
2021/05/15 00:37:44;;;;;;;5.63;4.78;;;18.40;92.60;;;;;;5031676;28;20061;-67
2021/05/15 00:40:12;;;;;;;5.55;4.88;;;18.40;92.60;;;;;;5031285;28;20036;-67
2021/05/15 00:42:39;;;;;;;6.22;5.30;;;18.40;92.50;;;;;;5031196;28;20116;-68
2021/05/15 00:45:07;;;;;;;5.38;4.55;;;18.40;92.60;;;;;;5030831;28;20483;-69
2021/05/15 00:47:33;;;;;;;4.97;4.47;;;18.40;92.50;;;;;;5030069;28;20025;-68
2021/05/15 00:49:59;;;;;;;4.95;4.50;;;18.30;92.50;;;;;;5030822;28;20033;-68
2021/05/15 00:52:27;;;;;;;5.18;4.68;;;18.30;92.50;;;;;;5031165;28;20033;-68
2021/05/15 00:54:54;;;;;;;5.00;4.50;;;18.30;92.50;;;;;;5031460;28;20537;-67
2021/05/15 00:57:21;;;;;;;5.30;4.80;;;18.30;92.40;;;;;;5030395;28;20041;-70
2021/05/15 00:59:46;;;;;;;4.80;4.38;;;18.30;92.40;;;;;;5030436;28;20030;-68
2021/05/15 01:02:12;;;;;;;5.75;4.70;;;18.30;92.40;;;;;;5031170;28;20037;-67
2021/05/15 01:04:39;;;;;;;5.88;5.05;;;18.20;92.30;;;;;;5030199;28;20030;-68
2021/05/15 01:07:09;;;;;;;5.30;4.80;;;18.30;92.40;;;;;;5031375;28;20040;-67
2021/05/15 01:09:35;;;;;;;5.25;4.75;;;18.20;92.30;;;;;;5030180;28;20025;-69
2021/05/15 01:12:05;;;;;;;4.97;4.50;;;18.20;92.30;;;;;;5030747;28;20149;-69
2021/05/15 01:14:35;;;;;;;5.15;4.65;;;18.20;92.30;;;;;;5030860;28;20025;-67
2021/05/15 01:17:01;;;;;;;6.07;4.85;;;18.20;92.30;;;;;;5031210;28;20029;-68
2021/05/15 01:19:26;;;;;;;5.15;4.50;;;18.20;92.30;;;;;;5030543;28;20462;-68
2021/05/15 01:21:52;;;;;;;5.05;4.55;;;18.10;92.20;;;;;;5031284;28;20038;-68
2021/05/15 01:24:18;;;;;;;4.97;4.45;;;18.10;92.20;;;;;;5030594;28;20075;-67
2021/05/15 01:26:44;;;;;;;4.95;4.45;;;18.10;92.20;;;;;;5031093;28;20065;-69
2021/05/15 01:29:10;;;;;;;5.68;4.63;;;18.10;92.20;;;;;;5030822;28;20030;-68
2021/05/15 01:31:38;;;;;;;5.13;4.63;;;18.10;92.20;;;;;;5030310;28;20480;-69
2021/05/15 01:34:04;;;;;;;5.00;4.60;;;18.10;92.20;;;;;;5031054;28;20101;-68
2021/05/15 01:36:32;;;;;;;5.93;4.80;;;18.10;92.20;;;;;;5031034;28;20108;-67
2021/05/15 01:38:57;;;;;;;4.75;4.35;;;18.00;92.20;;;;;;5031254;28;20021;-68
2021/05/15 01:41:23;;;;;;;4.82;4.43;;;18.00;92.20;;;;;;5030506;28;20113;-66
2021/05/15 01:43:49;;;;;;;4.53;4.13;;;18.10;92.20;;;;;;5030607;28;20055;-66
2021/05/15 01:46:15;;;;;;;4.60;4.18;;;18.10;92.20;;;;;;5031003;28;20062;-66
2021/05/15 01:48:41;;;;;;;5.00;4.50;;;18.10;92.10;;;;;;5030356;28;20033;-68
2021/05/15 01:51:12;;;;;;;4.63;4.22;;;18.10;92.20;;;;;;5033779;28;20037;-67
2021/05/15 01:53:39;;;;;;;5.38;4.40;;;18.10;92.10;;;;;;5034220;28;20033;-68
2021/05/15 01:56:08;;;;;;;4.72;4.13;;;18.10;92.20;;;;;;5034742;28;20461;-64
2021/05/15 01:58:34;;;;;;;5.00;4.50;;;18.10;92.10;;;;;;5034093;28;20025;-68
2021/05/15 02:01:00;;;;;;;4.68;4.28;;;18.10;92.20;;;;;;5032969;28;20022;-61
2021/05/15 02:03:26;;;;;;;4.85;4.18;;;18.10;92.20;;;;;;5034378;28;20044;-68
2021/05/15 02:05:53;;;;;;;4.90;4.47;;;18.00;92.20;;;;;;5033734;28;20433;-64
2021/05/15 02:08:20;;;;;;;4.55;4.10;;;18.00;92.20;;;;;;5034085;28;20037;-62
2021/05/15 02:10:47;;;;;;;5.03;4.53;;;18.00;92.20;;;;;;5034447;28;20080;-63
2021/05/15 02:13:13;;;;;;;4.63;4.22;;;18.00;92.10;;;;;;5034557;28;20075;-65
2021/05/15 02:15:39;;;;;;;5.03;4.18;;;18.00;92.20;;;;;;5033826;28;20030;-64
2021/05/15 02:18:06;;;;;;;4.55;4.07;;;18.00;92.20;;;;;;5034226;28;20052;-64
2021/05/15 02:20:34;;;;;;;5.22;4.30;;;18.00;92.20;;;;;;5033399;28;20040;-62
2021/05/15 02:23:00;;;;;;;6.13;4.95;;;18.00;92.20;;;;;;5033866;28;20032;-65
2021/05/15 02:25:27;;;;;;;5.45;4.85;;;18.00;92.20;;;;;;5033540;28;20033;-63
2021/05/15 02:27:53;;;;;;;5.25;4.75;;;18.00;92.20;;;;;;5014360;28;20018;-63
2021/05/15 02:30:20;;;;;;;5.20;4.68;;;17.90;92.20;;;;;;5032312;28;20112;-63
2021/05/15 02:32:46;;;;;;;5.32;4.82;;;17.90;92.20;;;;;;5034363;28;20088;-64
2021/05/15 02:35:12;;;;;;;5.75;5.05;;;17.90;92.20;;;;;;5033498;28;20121;-63
2021/05/15 02:37:38;;;;;;;5.60;5.00;;;17.90;92.20;;;;;;5033386;28;20112;-67
2021/05/15 02:40:06;;;;;;;5.47;4.80;;;17.90;92.20;;;;;;5033695;28;20536;-66
2021/05/15 02:42:32;;;;;;;5.63;5.03;;;17.90;92.20;;;;;;5032924;28;20034;-68
2021/05/15 02:44:57;;;;;;;6.18;5.32;;;17.90;92.10;;;;;;5033283;28;20033;-68
2021/05/15 02:47:23;;;;;;;6.55;5.40;;;17.90;92.10;;;;;;5033519;28;20032;-68
2021/05/15 02:49:50;;;;;;;5.60;5.05;;;17.90;92.10;;;;;;5033611;28;20470;-66
2021/05/15 02:52:15;;;;;;;6.03;5.07;;;17.80;92.10;;;;;;5033450;28;20044;-67
2021/05/15 02:54:41;;;;;;;5.57;5.05;;;17.90;92.10;;;;;;5032720;28;20025;-65
2021/05/15 02:57:08;;;;;;;5.43;4.93;;;17.80;92.10;;;;;;5033317;28;20043;-67
2021/05/15 02:59:34;;;;;;;5.63;5.13;;;17.80;92.10;;;;;;5033324;28;20025;-67
2021/05/15 03:02:00;;;;;;;6.22;5.63;;;17.80;92.10;;;;;;5032647;28;20064;-68
2021/05/15 03:04:26;;;;;;;5.90;5.30;;;17.80;92.10;;;;;;5032835;28;20025;-67
2021/05/15 03:06:51;;;;;;;6.55;5.70;;;17.80;92.10;;;;;;5032808;28;20528;-67
2021/05/15 03:09:17;;;;;;;6.53;5.82;;;17.80;92.10;;;;;;5032772;28;20033;-65
2021/05/15 03:11:43;;;;;;;6.45;5.75;;;17.80;92.10;;;;;;5033485;28;20083;-68
2021/05/15 03:14:09;;;;;;;6.22;5.63;;;17.80;92.10;;;;;;5033261;28;20017;-67
2021/05/15 03:16:35;;;;;;;6.25;5.63;;;17.80;92.10;;;;;;5032639;28;20034;-67
2021/05/15 03:19:00;;;;;;;5.97;5.38;;;17.80;92.10;;;;;;5033043;28;20053;-68
2021/05/15 03:21:26;;;;;;;6.38;5.70;;;17.70;92.00;;;;;;5032310;28;20072;-66
2021/05/15 03:23:52;;;;;;;6.47;5.82;;;17.70;92.00;;;;;;5032754;28;20025;-62
2021/05/15 03:26:18;;;;;;;6.88;6.18;;;17.70;92.00;;;;;;5032859;28;20049;-65
2021/05/15 03:28:43;;;;;;;6.93;6.22;;;17.70;92.00;;;;;;5033266;28;20029;-66
2021/05/15 03:31:09;;;;;;;6.45;5.63;;;17.70;92.00;;;;;;5032449;28;20077;-65
2021/05/15 03:33:35;;;;;;;6.47;5.75;;;17.70;92.00;;;;;;5031953;28;20116;-65
2021/05/15 03:36:00;;;;;;;6.82;6.10;;;17.70;92.00;;;;;;5032548;28;20021;-68
2021/05/15 03:38:26;;;;;;;6.40;5.80;;;17.70;92.00;;;;;;5032560;28;20036;-68
2021/05/15 03:40:51;;;;;;;5.90;5.30;;;17.70;92.00;;;;;;5032424;28;20040;-64
2021/05/15 03:43:17;;;;;;;6.20;5.60;;;17.70;92.00;;;;;;5032208;28;20033;-63
2021/05/15 03:45:43;;;;;;;6.47;5.88;;;17.70;92.00;;;;;;5032142;28;20086;-66
2021/05/15 03:48:08;;;;;;;7.28;5.95;;;17.70;92.30;;;;;;5032299;28;20036;-66
2021/05/15 03:50:34;;;;;;;6.72;6.05;;;17.70;92.00;;;;;;5031700;28;20025;-63
2021/05/15 03:52:59;;;;;;;6.90;5.93;;;17.60;92.00;;;;;;5032430;28;20490;-67
2021/05/15 03:55:25;;;;;;;6.75;5.80;;;17.60;92.00;;;;;;5031799;28;20029;-67
2021/05/15 03:57:51;;;;;;;6.95;6.25;;;17.60;92.00;;;;;;5032438;28;20025;-67
2021/05/15 04:00:17;;;;;;;6.72;6.03;;;17.60;92.00;;;;;;5032309;28;20017;-67
2021/05/15 04:02:43;;;;;;;6.65;5.60;;;17.60;92.00;;;;;;5031300;28;20112;-68
2021/05/15 04:05:09;;;;;;;6.90;6.20;;;17.60;92.00;;;;;;5031685;28;20112;-67
2021/05/15 04:07:34;;;;;;;7.07;6.30;;;17.60;91.90;;;;;;5031581;28;20033;-65
2021/05/15 04:10:00;;;;;;;6.90;6.20;;;17.60;92.00;;;;;;5032213;28;20516;-65
2021/05/15 04:12:33;;;;;;;6.63;6.03;;;17.60;92.20;;;;;;5030473;28;20083;-67
2021/05/15 04:17:30;;;;;;;7.72;6.70;;;17.60;91.90;;;;;;5031726;28;20037;-63
2021/05/15 04:19:57;;;;;;;7.38;6.53;;;17.60;91.90;;;;;;5031480;28;20021;-63
2021/05/15 04:22:23;;;;;;;7.50;6.70;;;17.60;91.90;;;;;;5030300;28;20056;-65
2021/05/15 04:24:48;;;;;;;7.88;7.05;;;17.50;91.90;;;;;;5032098;28;20022;-67
2021/05/15 04:27:14;;;;;;;7.47;6.68;;;17.50;91.90;;;;;;5032258;28;20056;-65
2021/05/15 04:29:41;;;;;;;7.45;6.55;;;17.60;91.90;;;;;;5031404;28;20112;-65
2021/05/15 04:32:07;;;;;;;7.50;6.70;;;17.60;91.90;;;;;;5031385;28;20430;-67
2021/05/15 04:34:32;;;;;;;6.78;6.07;;;17.60;91.90;;;;;;5030997;28;20017;-67
2021/05/15 04:36:58;;;;;;;7.60;6.82;;;17.60;91.90;;;;;;5031410;28;20060;-67
2021/05/15 04:39:25;;;;;;;7.43;6.70;;;17.50;92.20;;;;;;5031228;28;20040;-68
2021/05/15 04:41:52;;;;;;;8.98;7.10;;;17.60;91.90;;;;;;5031414;28;20620;-64
2021/05/15 04:44:18;;;;;;;7.80;6.68;;;17.50;91.90;;;;;;5030094;28;20025;-64
2021/05/15 04:46:44;;;;;;;7.57;6.60;;;17.50;91.90;;;;;;5031938;28;20413;-65
2021/05/15 04:49:09;;;;;;;7.90;6.78;;;17.50;91.90;;;;;;5031773;28;20029;-62
2021/05/15 04:51:36;;;;;;;8.55;6.65;;;17.50;92.00;;;;;;5030851;28;20049;-63
2021/05/15 04:54:02;;;;;;;7.95;7.13;;;17.50;91.90;;;;;;5031465;28;20110;-63
2021/05/15 04:56:29;;;;;;;7.20;6.40;;;17.50;91.90;;;;;;5030912;28;20088;-63
2021/05/15 04:58:55;;;;;;;7.82;6.88;;;17.50;91.90;;;;;;5031391;28;20101;-70
2021/05/15 05:01:21;;;;;;;6.85;6.15;;;17.50;91.90;;;;;;5030550;28;20048;-68
2021/05/15 05:03:47;;;;;;;7.43;6.65;;;17.50;91.90;;;;;;5031147;28;20069;-62
2021/05/15 05:06:13;;;;;;;9.05;7.10;;;17.50;91.90;;;;;;5031642;28;20456;-68
2021/05/15 05:08:38;;;;;;;6.97;6.20;;;17.60;91.90;;;;;;5031034;28;20053;-67
2021/05/15 05:11:04;;;;;;;7.10;6.28;;;17.50;91.90;;;;;;5030977;28;20478;-67
2021/05/15 05:13:30;;;;;;;8.57;7.45;;;17.50;91.90;;;;;;5030912;28;20041;-68
2021/05/15 05:15:55;;;;;;;7.95;7.10;;;17.50;91.90;;;;;;5030766;28;20060;-67
2021/05/15 05:18:22;;;;;;;7.32;6.60;;;17.50;91.90;;;;;;5030994;28;20029;-69
2021/05/15 05:20:48;;;;;;;8.18;6.90;;;17.50;91.90;;;;;;5030956;28;20029;-68
2021/05/15 05:23:13;;;;;;;7.63;6.32;;;17.50;91.90;;;;;;5031384;28;20400;-68
2021/05/15 05:25:39;;;;;;;7.05;6.35;;;17.50;91.80;;;;;;5034577;28;20030;-69
2021/05/15 05:28:06;;;;;;;7.03;6.30;;;17.50;91.80;;;;;;5034994;28;20078;-69
2021/05/15 05:30:32;;;;;;;8.02;6.88;;;17.60;91.80;;;;;;5034462;28;20029;-68
2021/05/15 05:32:59;;;;;;;7.25;6.43;;;17.60;91.90;;;;;;5034662;28;20500;-67
2021/05/15 05:35:24;;;;;;;7.07;6.38;;;17.60;91.80;;;;;;5034740;28;20021;-66
2021/05/15 05:37:50;;;;;;;6.82;6.18;;;17.50;91.80;;;;;;5034489;28;20037;-69
2021/05/15 05:40:17;;;;;;;7.18;6.47;;;17.50;91.80;;;;;;5034922;28;20498;-66
2021/05/15 05:42:43;;;;;;;7.28;6.57;;;17.50;91.80;;;;;;5034928;28;20025;-67
2021/05/15 05:45:11;;;;;;;7.78;6.70;;;17.50;91.80;;;;;;5034839;28;20065;-65
2021/05/15 05:47:38;;;;;;;7.13;6.43;;;17.50;91.80;;;;;;5034695;28;20069;-67
2021/05/15 05:50:05;;;;;;;7.60;6.63;;;17.60;91.80;;;;;;5034285;28;20052;-67
2021/05/15 05:52:31;;;;;;;11.32;7.53;;;17.50;91.80;;;;;;5034100;28;20452;-68
2021/05/15 05:54:57;;;;;;;8.10;6.88;;;17.50;91.80;;;;;;5034579;28;20025;-68
2021/05/15 05:57:22;;;;;;;8.15;7.07;;;17.50;91.80;;;;;;5034509;28;20061;-67
2021/05/15 05:59:48;;;;;;;8.48;6.80;;;17.50;91.80;;;;;;5034612;28;20024;-67
2021/05/15 06:02:13;;;;;;;8.10;6.72;;;17.50;91.90;;;;;;5034446;28;20034;-68
2021/05/15 06:04:39;;;;;;;8.93;7.85;;;17.50;91.80;;;;;;5033671;28;20052;-68
2021/05/15 06:07:07;;;;;;;8.68;7.28;;;17.50;91.80;;;;;;5034362;28;20033;-68
2021/05/15 06:09:33;;;;;;;9.02;7.35;;;17.60;91.70;;;;;;5034021;28;20021;-68
2021/05/15 06:11:58;;;;;;;10.10;7.32;;;17.50;91.70;;;;;;5034384;28;20488;-67
2021/05/15 06:14:24;;;;;;;9.82;7.13;;;17.60;91.80;;;;;;5032830;28;20026;-67
2021/05/15 06:16:50;;;;;;;8.98;7.15;;;17.60;91.70;;;;;;5034065;28;20037;-67
2021/05/15 06:19:17;;;;;;;9.27;7.82;;;17.60;91.70;;;;;;5034300;28;20051;-67
2021/05/15 06:21:43;;;;;;;10.38;8.00;;;17.60;91.70;;;;;;5034111;28;20033;-66
2021/05/15 06:24:09;;;;;;;9.88;8.30;;;17.60;91.70;;;;;;5034154;28;20051;-66
2021/05/15 06:26:35;;;;;;;10.65;8.18;;;17.60;91.60;;;;;;5033486;28;20436;-67
2021/05/15 06:29:00;;;;;;;10.52;8.48;;;17.60;91.70;;;;;;5034133;28;20076;-64
2021/05/15 06:31:26;;;;;;;11.93;8.02;;;17.60;91.60;;;;;;5032871;28;20117;-66
2021/05/15 06:33:52;;;;;;;13.45;9.00;;;17.60;91.60;;;;;;5033831;28;20496;-66
2021/05/15 06:36:17;;;;;;;10.50;7.80;;;17.60;91.50;;;;;;5032498;28;20022;-64
2021/05/15 06:38:43;;;;;;;12.15;9.30;;;17.70;91.60;;;;;;5034005;28;20087;-67
2021/05/15 06:41:09;;;;;;;9.88;7.88;;;17.70;91.40;;;;;;5033245;28;20490;-66
2021/05/15 06:43:34;;;;;;;12.93;8.82;;;17.70;91.70;;;;;;5033352;28;20028;-67
2021/05/15 06:46:00;;;;;;;12.20;9.10;;;17.70;91.40;;;;;;5033629;28;20108;-67
2021/05/15 06:48:26;;;;;;;13.10;9.90;;;17.80;91.30;;;;;;5033571;28;20064;-67
2021/05/15 06:50:52;;;;;;;13.00;9.50;;;17.80;91.20;;;;;;5033080;28;20037;-63
2021/05/15 06:53:17;;;;;;;12.98;9.77;;;17.80;91.60;;;;;;5033439;28;20042;-65
2021/05/15 06:55:43;;;;;;;13.57;9.63;;;17.80;91.30;;;;;;5033631;28;20036;-66
2021/05/15 06:58:09;;;;;;;12.73;9.73;;;17.90;91.30;;;;;;5033378;28;20030;-69
2021/05/15 07:00:34;;;;;;;14.32;10.32;;;17.90;91.20;;;;;;5032655;28;20505;-69
2021/05/15 07:03:00;;;;;;;14.10;9.50;;;17.90;91.20;;;;;;5032103;28;20021;-68
2021/05/15 07:05:26;;;;;;;13.90;9.82;;;17.90;91.20;;;;;;5032935;28;20053;-66
2021/05/15 07:07:52;;;;;;;15.32;10.18;;;17.90;91.20;;;;;;5033078;28;20032;-69
2021/05/15 07:10:18;;;;;;;14.27;10.02;;;17.90;91.20;;;;;;5033019;28;20025;-65
2021/05/15 07:12:43;;;;;;;15.90;9.95;;;17.90;91.30;;;;;;5033731;28;20531;-63
2021/05/15 07:15:10;;;;;;;13.73;9.90;;;17.90;91.30;;;;;;5031733;28;20028;-62
2021/05/15 07:17:35;;;;;;;14.55;10.13;;;17.90;91.30;;;;;;5032658;28;20052;-64
2021/05/15 07:20:03;;;;;;;13.30;10.32;;;18.00;91.10;;;;;;5048370;28;20474;-72
2021/05/15 07:22:29;;;;;;;12.73;8.68;;;18.10;91.00;;;;;;5032200;28;20029;-67
2021/05/15 07:24:58;;;;;;;14.57;10.30;;;18.10;91.00;;;;;;5033040;28;20025;-63
2021/05/15 07:27:25;;;;;;;14.10;10.02;;;18.10;91.00;;;;;;5032864;28;20026;-62
2021/05/15 07:29:53;;;;;;;12.77;9.60;;;18.10;90.90;;;;;;5032501;28;20029;-65
2021/05/15 07:32:20;;;;;;;12.38;9.10;;;18.20;90.90;;;;;;5032135;28;20091;-69
2021/05/15 07:34:46;;;;;;;14.27;9.93;;;18.20;90.90;;;;;;5033093;28;20028;-67
2021/05/15 07:37:13;;;;;;;12.98;9.70;;;18.20;90.80;;;;;;5033184;28;20374;-70
2021/05/15 07:39:39;;;;;;;12.15;9.18;;;18.30;90.80;;;;;;5031662;28;20132;-66
2021/05/15 07:42:06;;;;;;;12.38;8.98;;;18.30;90.80;;;;;;5021586;28;20116;-68
2021/05/15 07:44:33;;;;;;;15.45;9.45;;;18.40;90.90;;;;;;5031943;28;20026;-68
2021/05/15 07:46:59;;;;;;;15.32;9.60;;;18.40;90.90;;;;;;5034849;28;20108;-64
2021/05/15 07:49:25;;;;;;;11.73;8.70;;;18.50;90.80;;;;;;5031997;28;20513;-65
2021/05/15 07:51:52;;;;;;;13.27;9.40;;;18.60;90.80;;;;;;5032661;28;20514;-64
2021/05/15 07:54:18;;;;;;;12.77;9.10;;;18.60;90.70;;;;;;5032148;28;20401;-61
2021/05/15 07:56:44;;;;;;;12.88;8.57;;;18.50;90.70;;;;;;5032896;28;20155;-66
2021/05/15 07:59:09;;;;;;;12.80;8.82;;;18.50;91.00;;;;;;5032219;28;20425;-68
2021/05/15 08:01:35;;;;;;;13.52;8.82;;;18.50;91.30;;;;;;5031695;28;20029;-67
2021/05/15 08:04:01;;;;;;;13.05;8.70;;;18.50;91.40;;;;;;5032340;28;20032;-65
2021/05/15 08:06:26;;;;;;;13.75;9.50;;;18.50;91.60;;;;;;5032111;28;20029;-69
2021/05/15 08:08:52;;;;;;;12.90;8.98;;;18.50;91.80;;;;;;5032136;28;20027;-67
2021/05/15 08:11:18;;;;;;;12.68;8.50;;;18.50;91.80;;;;;;5031980;28;20560;-66
2021/05/15 08:13:45;;;;;;;13.75;9.23;;;18.50;91.90;;;;;;5032392;28;20021;-69
2021/05/15 08:16:12;;;;;;;14.75;8.85;;;18.50;91.90;;;;;;5031784;28;20029;-67
2021/05/15 08:18:39;;;;;;;14.18;8.60;;;18.50;92.00;;;;;;5031683;28;20049;-66
2021/05/15 08:21:05;;;;;;;15.48;8.88;;;18.50;92.10;;;;;;5031733;28;20149;-67
2021/05/15 08:23:35;;;;;;;15.60;9.10;;;18.50;92.10;;;;;;5031741;28;20541;-62
2021/05/15 08:26:05;;;;;;;12.52;8.07;;;18.60;92.20;;;;;;5032003;28;20017;-66
2021/05/15 08:28:31;;;;;;;13.30;7.95;;;18.60;92.20;;;;;;5031869;28;20134;-68
2021/05/15 08:30:57;;;;;;;13.20;7.00;;;18.60;92.30;;;;;;5029416;28;20101;-70
2021/05/15 08:33:23;;;;;;;10.18;6.97;;;18.60;92.50;;;;;;5038521;28;20041;-69
2021/05/15 08:35:49;;;;;;;11.63;7.60;;;18.60;92.80;;;;;;5048644;28;20036;-68
2021/05/15 08:38:15;;;;;;;12.23;7.15;;;18.60;93.20;;;;;;5052064;28;20052;-68
2021/05/15 08:40:40;;;;;;;10.13;6.22;;;18.60;93.00;;;;;;5045012;28;20068;-67
2021/05/15 08:43:08;;;;;;;8.60;5.80;;;18.60;93.00;;;;;;5034410;28;20041;-67
2021/05/15 08:45:33;;;;;;;11.05;6.63;;;18.60;92.90;;;;;;5043242;28;20028;-66
2021/05/15 08:48:01;;;;;;;11.75;6.63;;;18.60;93.40;;;;;;5045226;28;20033;-64
2021/05/15 08:50:29;;;;;;;11.15;6.63;;;18.70;93.30;;;;;;5033584;28;20025;-62
2021/05/15 08:52:58;;;;;;;11.70;6.65;;;18.80;93.20;;;;;;5031029;28;20083;-65
2021/05/15 08:55:27;;;;;;;10.13;6.45;;;18.80;93.20;;;;;;5041745;28;20024;-68
2021/05/15 08:57:54;;;;;;;10.75;6.13;;;18.80;93.00;;;;;;5029694;28;20099;-63
2021/05/15 09:00:25;;;;;;;12.98;6.90;;;18.90;92.90;;;;;;5031539;28;20025;-69
2021/05/15 09:02:54;;;;;;;10.18;5.95;;;19.00;93.00;;;;;;5037004;28;20028;-67
2021/05/15 09:05:22;;;;;;;8.90;5.53;;;19.10;92.90;;;;;;5050864;28;20056;-70
2021/05/15 09:07:59;;;;;;;11.48;5.78;;;19.10;92.80;;;;;;5047306;28;20478;-64
2021/05/15 09:10:33;;;;;;;12.70;5.68;;;19.20;92.60;;;;;;5046382;28;20033;-65
2021/05/15 09:13:23;;;;;;;11.13;5.90;;;19.30;92.80;;;;;;5038619;28;20410;-64
2021/05/15 09:15:57;;;;;;;13.30;6.32;;;19.30;92.80;;;;;;5046225;28;20469;-65
2021/05/15 09:18:25;;;;;;;9.82;6.10;;;19.30;92.80;;;;;;5039888;28;20037;-63
2021/05/15 09:20:54;;;;;;;8.68;5.20;;;19.30;93.20;;;;;;5030924;28;20436;-63
2021/05/15 09:23:21;;;;;;;10.43;6.15;;;19.30;92.90;;;;;;5032471;28;20026;-65
2021/05/15 09:26:09;;;;;;;12.13;5.32;;;19.30;92.90;;;;;;5049081;28;20061;-64
2021/05/15 09:28:37;;;;;;;9.57;5.70;;;19.30;92.90;;;;;;5049334;28;20057;-62
2021/05/15 09:31:15;;;;;;;9.88;5.57;;;19.30;92.90;;;;;;5039681;28;20031;-63
2021/05/15 09:33:44;;;;;;;11.80;6.68;;;19.40;92.80;;;;;;5035684;28;20497;-63
2021/05/15 09:36:32;;;;;;;14.15;6.80;;;19.30;92.90;;;;;;5038739;28;20475;-64
2021/05/15 09:39:04;;;;;;;13.25;6.95;;;19.30;92.90;;;;;;5047396;28;20025;-63
2021/05/15 09:41:53;;;;;;;13.13;7.00;;;19.40;92.90;;;;;;5011000;28;20132;-63
2021/05/15 09:44:20;;;;;;;13.32;6.90;;;19.40;92.80;;;;;;5027908;28;20431;-63
2021/05/15 09:46:47;;;;;;;14.05;7.13;;;19.40;92.80;;;;;;5051262;28;20080;-65
2021/05/15 09:49:14;;;;;;;14.07;7.22;;;19.40;92.90;;;;;;5048591;28;20075;-63
2021/05/15 09:52:09;;;;;;;13.77;7.15;;;19.40;92.80;;;;;;5041016;28;20493;-67
2021/05/15 09:54:40;;;;;;;13.02;6.82;;;19.40;92.80;;;;;;5021824;28;20041;-64
2021/05/15 09:57:07;;;;;;;14.45;6.95;;;19.40;92.60;;;;;;5049681;28;20043;-69
2021/05/15 09:59:41;;;;;;;13.15;6.60;;;19.40;92.70;;;;;;5033195;28;20108;-69
2021/05/15 10:02:15;;;;;;;13.02;6.68;;;19.40;92.60;;;;;;5034762;28;20040;-70
2021/05/15 10:04:46;;;;;;;12.38;6.35;;;19.40;92.60;;;;;;5032335;28;20115;-67
2021/05/15 10:07:30;;;;;;;14.75;7.50;;;19.40;92.60;;;;;;5042970;28;20032;-63
2021/05/15 10:10:00;;;;;;;12.30;7.03;;;19.40;92.60;;;;;;5042092;28;20610;-63
2021/05/15 10:12:26;;;;;;;11.60;6.07;;;19.40;92.50;;;;;;5052251;28;20140;-63
2021/05/15 10:14:52;;;;;;;13.73;6.72;;;19.40;92.80;;;;;;5045238;28;20109;-68
2021/05/15 10:17:18;;;;;;;13.07;7.60;;;19.40;92.40;;;;;;5033658;28;20032;-68
2021/05/15 10:19:43;;;;;;;11.15;6.57;;;19.60;92.30;;;;;;5034362;28;20560;-70
2021/05/15 10:22:09;;;;;;;13.98;6.90;;;19.60;92.30;;;;;;5033660;28;20021;-64
2021/05/15 10:24:37;;;;;;;11.20;6.60;;;19.60;92.20;;;;;;5052811;28;20025;-68
2021/05/15 10:27:10;;;;;;;12.45;6.43;;;19.60;92.20;;;;;;5034396;28;20021;-67
2021/05/15 10:29:45;;;;;;;11.23;6.15;;;19.60;92.10;;;;;;5033459;28;20033;-67
2021/05/15 10:32:24;;;;;;;13.05;5.97;;;19.60;92.20;;;;;;5032144;28;20528;-65
2021/05/15 10:35:00;;;;;;;13.77;6.57;;;19.60;92.20;;;;;;5030424;28;20029;-64
2021/05/15 10:37:30;;;;;;;11.35;6.18;;;19.50;92.20;;;;;;5029705;28;20029;-68
2021/05/15 10:39:55;;;;;;;11.93;6.22;;;19.60;92.10;;;;;;5029604;28;20034;-67
2021/05/15 10:42:32;;;;;;;10.85;5.72;;;19.60;92.10;;;;;;5033069;28;20055;-65
2021/05/15 10:44:59;;;;;;;10.90;6.10;;;19.60;92.10;;;;;;5049819;28;20064;-68
2021/05/15 10:47:25;;;;;;;10.65;6.20;;;19.50;92.10;;;;;;5042340;28;20018;-64
2021/05/15 10:49:51;;;;;;;10.13;5.53;;;19.60;92.10;;;;;;5031692;28;20121;-62
2021/05/15 10:52:22;;;;;;;10.68;5.90;;;19.60;92.20;;;;;;5033983;28;20069;-64
2021/05/15 10:54:59;;;;;;;11.00;5.80;;;19.50;92.20;;;;;;5033208;28;20425;-67
2021/05/15 10:57:27;;;;;;;12.35;6.38;;;19.50;92.20;;;;;;5036287;28;20032;-69
2021/05/15 11:00:00;;;;;;;10.45;6.10;;;19.40;92.30;;;;;;5035014;28;20025;-69
2021/05/15 11:02:37;;;;;;;9.93;5.88;;;19.40;92.40;;;;;;5049655;28;20021;-68
2021/05/15 11:05:11;;;;;;;10.95;5.95;;;19.40;92.40;;;;;;5042836;28;20029;-68
2021/05/15 11:07:40;;;;;;;12.15;6.18;;;19.40;92.60;;;;;;5052959;28;20040;-68
2021/05/15 11:10:08;;;;;;;11.50;6.72;;;19.40;92.50;;;;;;5046476;28;20025;-68
2021/05/15 11:12:43;;;;;;;10.55;5.95;;;19.40;92.50;;;;;;5032821;28;20436;-69
2021/05/15 11:15:12;;;;;;;11.30;6.32;;;19.40;92.60;;;;;;5032033;28;20029;-68
2021/05/15 11:17:38;;;;;;;10.85;5.68;;;19.40;92.60;;;;;;5031807;28;20083;-67
2021/05/15 11:20:19;;;;;;;10.43;5.90;;;19.40;92.70;;;;;;5031092;28;20017;-66
2021/05/15 11:22:53;;;;;;;13.23;6.20;;;19.40;92.90;;;;;;5030645;28;20029;-67
2021/05/15 11:25:28;;;;;;;11.82;6.15;;;19.20;93.10;;;;;;5029107;28;20021;-68
2021/05/15 11:27:57;;;;;;;11.40;6.03;;;19.30;93.00;;;;;;5029406;28;20079;-65
2021/05/15 11:30:22;;;;;;;9.07;5.60;;;19.30;92.90;;;;;;5030863;28;20014;-67
2021/05/15 11:32:57;;;;;;;10.55;5.43;;;19.40;92.80;;;;;;5032771;28;20126;-64
2021/05/15 11:35:22;;;;;;;11.65;5.88;;;19.40;92.70;;;;;;5027859;28;20021;-68
2021/05/15 11:37:48;;;;;;;9.20;5.80;;;19.50;92.70;;;;;;5031572;28;20040;-64
2021/05/15 11:40:14;;;;;;;10.65;5.35;;;19.60;92.70;;;;;;5031945;28;20420;-67
2021/05/15 11:42:40;;;;;;;11.43;5.97;;;19.50;92.60;;;;;;5031660;28;20063;-64
2021/05/15 11:45:06;;;;;;;11.18;5.07;;;19.60;92.60;;;;;;5030639;28;20029;-67
2021/05/15 11:47:32;;;;;;;8.65;5.40;;;19.60;92.60;;;;;;5031547;28;20029;-63
2021/05/15 11:50:00;;;;;;;14.40;6.40;;;19.60;92.70;;;;;;5030371;28;20026;-67
2021/05/15 11:52:34;;;;;;;8.93;5.47;;;19.50;92.70;;;;;;5030800;28;20083;-67
2021/05/15 11:55:03;;;;;;;10.95;5.65;;;19.50;92.70;;;;;;5030934;28;20029;-64
2021/05/15 11:57:30;;;;;;;9.52;5.60;;;19.50;92.70;;;;;;5028893;28;20029;-68
2021/05/15 12:00:15;;;;;;;8.65;4.97;;;19.60;92.70;;;;;;5028582;28;20532;-63
2021/05/15 12:02:47;;;;;;;9.43;5.30;;;19.60;92.60;;;;;;5027559;28;20029;-66
2021/05/15 12:05:14;;;;;;;9.40;5.15;;;19.70;92.50;;;;;;5030166;28;20144;-67
2021/05/15 12:07:53;;;;;;;10.70;5.55;;;19.70;92.40;;;;;;5030627;28;20021;-66
2021/05/15 12:10:21;;;;;;;9.75;5.07;;;19.70;92.40;;;;;;5029454;28;20021;-63
2021/05/15 12:12:54;;;;;;;8.18;5.28;;;19.80;92.40;;;;;;5029578;28;20037;-63
2021/05/15 12:15:20;;;;;;;9.20;5.15;;;19.70;92.40;;;;;;5029627;28;20017;-67
2021/05/15 12:17:45;;;;;;;10.35;5.60;;;19.80;92.30;;;;;;5031227;28;20037;-69
2021/05/15 12:20:12;;;;;;;9.38;5.70;;;19.80;92.30;;;;;;5030332;28;20037;-65
2021/05/15 12:22:38;;;;;;;9.98;5.32;;;19.80;92.20;;;;;;5030309;28;20029;-66
2021/05/15 12:25:10;;;;;;;10.05;5.43;;;19.80;92.20;;;;;;5030821;28;20029;-68
2021/05/15 12:27:36;;;;;;;8.70;4.63;;;19.80;92.10;;;;;;5029800;28;20186;-67
2021/05/15 12:30:06;;;;;;;7.65;4.35;;;19.80;92.10;;;;;;5030959;28;20063;-68
2021/05/15 12:32:33;;;;;;;8.02;4.15;;;19.80;92.00;;;;;;5030781;28;20089;-66
2021/05/15 12:35:01;;;;;;;7.50;4.10;;;19.80;91.90;;;;;;5030684;28;20427;-68
2021/05/15 12:37:35;;;;;;;6.55;4.28;;;19.80;92.00;;;;;;5028581;28;20355;-65
2021/05/15 12:40:04;;;;;;;8.40;4.40;;;19.80;91.90;;;;;;5028866;28;20040;-66
2021/05/15 12:42:31;;;;;;;6.95;3.97;;;19.80;91.90;;;;;;5031184;28;20032;-63
2021/05/15 12:45:16;;;;;;;6.38;3.70;;;19.80;91.90;;;;;;5045940;28;20021;-63
2021/05/15 12:47:43;;;;;;;5.53;3.58;;;19.80;92.00;;;;;;5028674;28;20366;-64